createdAt,value
2022-07-31T00:00:22.872Z,3.78
2022-07-31T00:02:49.289Z,3.80
2022-07-31T00:05:15.754Z,3.85
2022-07-31T00:07:42.701Z,4.22
2022-07-31T00:10:09.815Z,3.92
2022-07-31T00:12:36.273Z,4.07
2022-07-31T00:15:07.673Z,3.25
2022-07-31T00:17:34.551Z,3.72
2022-07-31T00:20:01.916Z,3.60
2022-07-31T00:22:28.403Z,3.75
2022-07-31T00:24:54.815Z,3.50
2022-07-31T00:27:21.422Z,3.30
2022-07-31T00:29:47.822Z,3.35
2022-07-31T00:32:14.227Z,3.85
2022-07-31T00:34:41.127Z,3.60
2022-07-31T00:37:07.587Z,3.72
2022-07-31T00:39:34.211Z,3.33
2022-07-31T00:42:04.083Z,3.80
2022-07-31T00:44:30.479Z,3.58
2022-07-31T00:46:57.996Z,3.97
2022-07-31T00:49:24.705Z,3.95
2022-07-31T00:51:51.838Z,3.65
2022-07-31T00:54:22.405Z,3.50
2022-07-31T00:56:49.341Z,3.88
2022-07-31T00:59:15.845Z,3.90
2022-07-31T01:01:44.326Z,3.90
2022-07-31T01:04:19.858Z,3.70
2022-07-31T01:06:47.061Z,4.63
2022-07-31T01:09:14.684Z,4.38
2022-07-31T01:11:59.728Z,4.43
2022-07-31T01:14:31.094Z,4.25
2022-07-31T01:17:00.067Z,4.18
2022-07-31T01:19:39.777Z,4.05
2022-07-31T01:22:33.985Z,3.88
2022-07-31T01:25:07.822Z,3.80
2022-07-31T01:27:52.492Z,3.73
2022-07-31T01:30:22.521Z,3.65
2022-07-31T01:32:51.755Z,3.60
2022-07-31T01:35:25.505Z,3.25
2022-07-31T01:38:01.621Z,4.10
2022-07-31T01:40:36.117Z,4.00
2022-07-31T01:43:07.875Z,4.55
2022-07-31T01:45:38.553Z,3.78
2022-07-31T01:48:05.612Z,3.83
2022-07-31T01:50:43.981Z,3.80
2022-07-31T01:53:14.145Z,3.67
2022-07-31T01:56:02.370Z,4.18
2022-07-31T01:58:32.577Z,4.05
2022-07-31T02:01:00.247Z,3.90
2022-07-31T02:03:44.085Z,4.30
2022-07-31T02:06:16.924Z,3.85
2022-07-31T02:08:46.089Z,4.45
2022-07-31T02:11:14.493Z,3.67
2022-07-31T02:13:40.950Z,4.25
2022-07-31T02:16:08.198Z,4.05
2022-07-31T02:18:35.376Z,4.47
2022-07-31T02:21:02.093Z,5.00
2022-07-31T02:23:28.606Z,4.45
2022-07-31T02:25:55.631Z,4.35
2022-07-31T02:28:24.503Z,4.40
2022-07-31T02:30:51.943Z,4.32
2022-07-31T02:33:21.683Z,4.28
2022-07-31T02:35:50.431Z,4.13
2022-07-31T02:38:22.359Z,4.68
2022-07-31T02:40:52.661Z,4.30
2022-07-31T02:43:19.827Z,4.10
2022-07-31T02:45:47.001Z,3.75
2022-07-31T02:48:13.560Z,4.30
2022-07-31T02:50:40.153Z,4.63
2022-07-31T02:53:08.965Z,4.80
2022-07-31T02:55:35.913Z,4.63
2022-07-31T02:58:03.599Z,4.25
2022-07-31T03:00:30.822Z,3.80
2022-07-31T03:02:57.951Z,4.07
2022-07-31T03:05:24.775Z,4.10
2022-07-31T03:07:51.539Z,3.95
2022-07-31T03:10:18.376Z,4.88
2022-07-31T03:12:48.228Z,3.72
2022-07-31T03:15:18.342Z,4.50
2022-07-31T03:17:45.706Z,4.03
2022-07-31T03:20:14.865Z,5.00
2022-07-31T03:22:42.269Z,5.20
2022-07-31T03:25:10.386Z,5.82
2022-07-31T03:27:37.155Z,4.82
2022-07-31T03:30:05.171Z,5.68
2022-07-31T03:32:31.591Z,4.70
2022-07-31T03:34:58.036Z,5.22
2022-07-31T03:37:24.452Z,5.32
2022-07-31T03:39:50.878Z,5.43
2022-07-31T03:42:19.283Z,5.50
2022-07-31T03:44:50.134Z,5.80
2022-07-31T03:47:16.698Z,5.22
2022-07-31T03:49:43.833Z,5.60
2022-07-31T03:52:12.431Z,5.10
2022-07-31T03:54:39.824Z,5.40
2022-07-31T03:57:08.562Z,4.85
2022-07-31T03:59:40.479Z,5.32
2022-07-31T04:02:15.491Z,4.95
2022-07-31T04:04:45.666Z,5.50
2022-07-31T04:07:12.147Z,5.20
2022-07-31T04:09:38.759Z,5.05
2022-07-31T04:12:06.103Z,4.57
2022-07-31T04:14:32.940Z,4.85
2022-07-31T04:16:59.428Z,4.80
2022-07-31T04:19:26.033Z,4.22
2022-07-31T04:21:52.466Z,4.80
2022-07-31T04:24:20.848Z,3.90
2022-07-31T04:26:49.344Z,4.70
2022-07-31T04:29:16.061Z,4.40
2022-07-31T04:31:42.618Z,4.40
2022-07-31T04:34:09.124Z,4.57
2022-07-31T04:36:35.619Z,4.07
2022-07-31T04:39:02.125Z,4.60
2022-07-31T04:41:28.908Z,4.68
2022-07-31T04:43:57.692Z,4.70
2022-07-31T04:46:24.515Z,3.85
2022-07-31T04:48:51.270Z,4.13
2022-07-31T04:51:23.080Z,4.32
2022-07-31T04:53:50.545Z,3.90
2022-07-31T04:56:33.738Z,3.55
2022-07-31T04:59:02.189Z,4.00
2022-07-31T05:01:28.697Z,3.80
2022-07-31T05:03:55.178Z,4.07
2022-07-31T05:06:22.500Z,3.88
2022-07-31T05:08:52.031Z,4.30
2022-07-31T05:11:24.598Z,4.03
2022-07-31T05:13:59.164Z,4.28
2022-07-31T05:16:28.712Z,4.63
2022-07-31T05:18:55.711Z,4.07
2022-07-31T05:21:27.109Z,3.63
2022-07-31T05:23:54.649Z,4.18
2022-07-31T05:26:21.171Z,3.50
2022-07-31T05:28:56.467Z,3.90
2022-07-31T05:31:28.214Z,4.10
2022-07-31T05:33:54.666Z,3.92
2022-07-31T05:36:21.622Z,4.13
2022-07-31T05:38:48.174Z,4.22
2022-07-31T05:41:14.983Z,3.42
2022-07-31T05:43:41.414Z,3.47
2022-07-31T05:46:08.294Z,3.65
2022-07-31T05:48:34.793Z,3.25
2022-07-31T05:51:09.426Z,3.63
2022-07-31T05:53:36.223Z,3.22
2022-07-31T05:56:02.860Z,3.63
2022-07-31T05:58:29.293Z,3.63
2022-07-31T06:00:55.701Z,3.58
2022-07-31T06:03:23.986Z,3.13
2022-07-31T06:05:51.930Z,3.17
2022-07-31T06:08:18.478Z,3.35
2022-07-31T06:10:45.151Z,3.25
2022-07-31T06:13:12.888Z,3.28
2022-07-31T06:15:39.376Z,3.30
2022-07-31T06:18:09.096Z,3.42
2022-07-31T06:20:35.595Z,3.60
2022-07-31T06:23:03.729Z,2.60
2022-07-31T06:25:46.621Z,3.40
2022-07-31T06:28:15.325Z,3.13
2022-07-31T06:30:43.962Z,2.90
2022-07-31T06:33:16.714Z,3.35
2022-07-31T06:35:58.782Z,3.40
2022-07-31T06:38:25.233Z,3.72
2022-07-31T06:40:52.157Z,3.00
2022-07-31T06:43:18.631Z,3.67
2022-07-31T06:45:51.539Z,3.30
2022-07-31T06:48:18.729Z,3.00
2022-07-31T06:50:45.392Z,3.10
2022-07-31T06:53:11.786Z,2.90
2022-07-31T06:55:44.755Z,2.75
2022-07-31T06:58:11.342Z,3.00
2022-07-31T07:00:40.822Z,2.92
2022-07-31T07:03:07.215Z,2.97
2022-07-31T07:05:33.655Z,2.65
2022-07-31T07:08:01.113Z,2.67
2022-07-31T07:10:27.547Z,2.50
2022-07-31T07:12:54.190Z,3.05
2022-07-31T07:15:20.833Z,2.35
2022-07-31T07:17:47.214Z,2.50
2022-07-31T07:20:13.868Z,2.72
2022-07-31T07:22:40.323Z,2.30
2022-07-31T07:25:07.123Z,2.53
2022-07-31T07:27:33.546Z,2.50
2022-07-31T07:30:00.558Z,2.20
2022-07-31T07:32:26.984Z,2.40
2022-07-31T07:34:59.885Z,2.35
2022-07-31T07:37:27.441Z,2.58
2022-07-31T07:39:53.864Z,2.42
2022-07-31T07:42:20.334Z,2.00
2022-07-31T07:44:46.795Z,2.53
2022-07-31T07:47:13.534Z,2.30
2022-07-31T07:49:39.941Z,2.10
2022-07-31T07:52:06.384Z,2.10
2022-07-31T07:54:32.832Z,2.13
2022-07-31T07:57:02.388Z,2.22
2022-07-31T07:59:28.813Z,1.52
2022-07-31T08:01:55.725Z,1.40
2022-07-31T08:04:22.126Z,1.50
2022-07-31T08:06:48.541Z,1.38
2022-07-31T08:09:14.966Z,1.80
2022-07-31T08:11:41.491Z,1.70
2022-07-31T08:14:07.888Z,1.50
2022-07-31T08:16:40.482Z,1.67
2022-07-31T08:19:09.024Z,1.52
2022-07-31T08:21:35.759Z,1.67
2022-07-31T08:24:02.395Z,1.50
2022-07-31T08:26:48.858Z,1.65
2022-07-31T08:29:15.365Z,1.63
2022-07-31T08:31:41.799Z,1.55
2022-07-31T08:34:30.580Z,1.48
2022-07-31T08:36:58.694Z,1.48
2022-07-31T08:39:26.131Z,1.35
2022-07-31T08:41:52.590Z,1.45
2022-07-31T08:44:25.841Z,1.73
2022-07-31T08:46:58.337Z,1.48
2022-07-31T08:49:26.319Z,1.50
2022-07-31T08:51:55.415Z,1.15
2022-07-31T08:54:26.328Z,1.50
2022-07-31T08:56:53.757Z,1.60
2022-07-31T08:59:21.958Z,1.50
2022-07-31T09:01:48.697Z,1.58
2022-07-31T09:04:17.350Z,1.60
2022-07-31T09:06:44.944Z,1.70
2022-07-31T09:09:11.381Z,1.65
2022-07-31T09:11:49.864Z,1.58
2022-07-31T09:14:34.464Z,1.83
2022-07-31T09:17:05.352Z,1.55
2022-07-31T09:19:51.913Z,1.60
2022-07-31T09:22:23.957Z,1.73
2022-07-31T09:24:50.937Z,1.80
2022-07-31T09:27:18.004Z,1.40
2022-07-31T09:29:46.841Z,1.50
2022-07-31T09:32:15.955Z,1.73
2022-07-31T09:34:44.878Z,1.52
2022-07-31T09:37:29.651Z,1.70
2022-07-31T09:39:57.322Z,1.40
2022-07-31T09:42:38.866Z,1.35
2022-07-31T09:45:22.581Z,1.55
2022-07-31T09:48:15.283Z,1.70
2022-07-31T09:51:13.499Z,1.85
2022-07-31T09:53:52.945Z,1.60
2022-07-31T09:56:33.669Z,1.55
2022-07-31T09:59:00.822Z,1.50
2022-07-31T10:01:27.970Z,1.67
2022-07-31T10:03:56.952Z,1.58
2022-07-31T10:06:27.199Z,1.13
2022-07-31T10:08:55.376Z,1.33
2022-07-31T10:11:22.535Z,1.50
2022-07-31T10:13:51.227Z,1.50
2022-07-31T10:16:19.387Z,1.55
2022-07-31T10:18:53.080Z,1.75
2022-07-31T10:21:27.717Z,1.60
2022-07-31T10:23:55.532Z,1.73
2022-07-31T10:26:34.308Z,1.80
2022-07-31T10:31:36.171Z,1.60
2022-07-31T10:34:03.293Z,1.50
2022-07-31T10:36:35.827Z,1.55
2022-07-31T10:39:13.614Z,1.45
2022-07-31T10:41:59.979Z,1.52
2022-07-31T10:44:41.205Z,1.48
2022-07-31T10:47:15.052Z,1.50
2022-07-31T10:49:47.833Z,1.40
2022-07-31T10:52:15.462Z,1.50
2022-07-31T10:54:46.407Z,1.50
2022-07-31T10:57:27.290Z,1.60
2022-07-31T11:00:14.482Z,1.48
2022-07-31T11:02:41.177Z,1.48
2022-07-31T11:05:13.143Z,1.50
2022-07-31T11:07:41.670Z,1.50
2022-07-31T11:10:10.151Z,1.60
2022-07-31T11:12:36.823Z,1.45
2022-07-31T11:15:04.030Z,1.50
2022-07-31T11:18:21.916Z,1.30
2022-07-31T11:20:27.477Z,1.63
2022-07-31T11:23:05.973Z,1.65
2022-07-31T11:25:37.024Z,1.90
2022-07-31T11:28:18.621Z,1.80
2022-07-31T11:30:53.243Z,1.50
2022-07-31T11:33:46.076Z,1.60
2022-07-31T11:36:19.991Z,1.52
2022-07-31T11:38:52.134Z,1.70
2022-07-31T11:41:22.791Z,1.50
2022-07-31T11:43:51.614Z,1.80
2022-07-31T11:46:29.695Z,1.70
2022-07-31T11:48:57.123Z,1.60
2022-07-31T11:51:25.261Z,1.73
2022-07-31T11:53:57.550Z,1.70
2022-07-31T11:56:26.360Z,1.70
2022-07-31T11:58:58.015Z,1.88
2022-07-31T12:01:27.690Z,11.10
2022-07-31T12:03:55.261Z,9.57
2022-07-31T12:06:22.050Z,4.15
2022-07-31T12:08:49.861Z,4.57
2022-07-31T12:11:18.597Z,2.00
2022-07-31T12:13:47.347Z,1.88
2022-07-31T12:16:14.123Z,1.63
2022-07-31T12:18:53.987Z,1.52
2022-07-31T12:21:29.364Z,1.60
2022-07-31T12:23:59.608Z,1.63
2022-07-31T12:26:31.812Z,1.60
2022-07-31T12:29:06.256Z,1.63
2022-07-31T12:31:45.892Z,1.80
2022-07-31T12:34:13.414Z,1.80
2022-07-31T12:36:43.974Z,1.67
2022-07-31T12:39:12.452Z,1.65
2022-07-31T12:41:43.231Z,1.63
2022-07-31T12:44:14.561Z,1.70
2022-07-31T12:46:42.269Z,1.38
2022-07-31T12:49:09.169Z,1.80
2022-07-31T12:51:45.415Z,1.60
2022-07-31T12:54:17.251Z,1.55
2022-07-31T12:56:45.058Z,1.48
2022-07-31T12:59:12.103Z,1.50
2022-07-31T13:01:39.151Z,1.30
2022-07-31T13:04:07.898Z,1.20
2022-07-31T13:06:36.121Z,1.60
2022-07-31T13:09:02.804Z,1.60
2022-07-31T13:11:46.936Z,1.63
2022-07-31T13:14:16.334Z,1.42
2022-07-31T13:16:44.511Z,1.25
2022-07-31T13:19:11.606Z,1.40
2022-07-31T13:21:48.274Z,1.30
2022-07-31T13:24:20.026Z,1.50
2022-07-31T13:26:47.741Z,1.35
2022-07-31T13:29:14.238Z,1.20
2022-07-31T13:31:40.825Z,1.30
2022-07-31T13:34:08.411Z,1.20
2022-07-31T13:36:45.753Z,1.30
2022-07-31T13:39:15.283Z,1.30
2022-07-31T13:41:41.851Z,1.33
2022-07-31T13:44:09.455Z,1.23
2022-07-31T13:46:36.483Z,1.27
2022-07-31T13:49:08.149Z,1.35
2022-07-31T13:51:35.679Z,1.20
2022-07-31T13:54:02.244Z,1.15
2022-07-31T13:56:39.003Z,1.27
2022-07-31T13:59:11.383Z,1.27
2022-07-31T14:02:03.447Z,1.20
2022-07-31T14:06:51.694Z,1.05
2022-07-31T14:09:19.195Z,1.10
2022-07-31T14:11:46.109Z,1.10
2022-07-31T14:14:15.097Z,1.20
2022-07-31T14:16:48.815Z,1.10
2022-07-31T14:19:15.459Z,1.30
2022-07-31T14:21:56.504Z,1.08
2022-07-31T14:24:25.187Z,1.35
2022-07-31T14:26:51.914Z,1.00
2022-07-31T14:29:18.448Z,1.30
2022-07-31T14:31:44.834Z,1.17
2022-07-31T14:34:11.275Z,1.05
2022-07-31T14:36:37.838Z,1.30
2022-07-31T14:39:04.265Z,1.20
2022-07-31T14:41:30.685Z,1.10
2022-07-31T14:43:57.082Z,0.90
2022-07-31T14:46:23.507Z,1.20
2022-07-31T14:48:50.102Z,1.00
2022-07-31T14:51:18.193Z,1.17
2022-07-31T14:53:46.739Z,1.40
2022-07-31T14:56:13.135Z,1.08
2022-07-31T14:58:58.553Z,1.15
2022-07-31T15:01:30.388Z,1.27
2022-07-31T15:03:57.671Z,0.90
2022-07-31T15:06:48.808Z,1.15
2022-07-31T15:09:22.157Z,1.15
2022-07-31T15:11:59.804Z,1.17
2022-07-31T15:14:30.786Z,1.08
2022-07-31T15:16:57.842Z,1.10
2022-07-31T15:19:24.265Z,1.20
2022-07-31T15:22:11.072Z,1.00
2022-07-31T15:24:41.270Z,1.10
2022-07-31T15:27:12.018Z,1.02
2022-07-31T15:30:00.391Z,1.10
2022-07-31T15:32:24.970Z,1.30
2022-07-31T15:35:08.815Z,1.10
2022-07-31T15:37:37.449Z,1.38
2022-07-31T15:40:07.193Z,1.30
2022-07-31T15:42:40.339Z,1.17
2022-07-31T15:45:09.538Z,1.40
2022-07-31T15:47:36.313Z,1.15
2022-07-31T15:50:03.166Z,1.40
2022-07-31T15:52:29.742Z,1.30
2022-07-31T15:54:57.382Z,1.33
2022-07-31T15:57:24.679Z,1.30
2022-07-31T15:59:54.307Z,1.58
2022-07-31T16:02:23.999Z,1.50
2022-07-31T16:04:56.580Z,1.20
2022-07-31T16:08:30.039Z,1.52
2022-07-31T16:10:17.673Z,1.17
2022-07-31T16:12:47.994Z,1.30
2022-07-31T16:15:16.126Z,1.20
2022-07-31T16:17:43.031Z,1.35
2022-07-31T16:20:11.128Z,1.20
2022-07-31T16:22:40.159Z,1.20
2022-07-31T16:25:08.567Z,1.33
2022-07-31T16:27:35.109Z,1.25
2022-07-31T16:30:02.922Z,1.30
2022-07-31T16:32:30.359Z,1.20
2022-07-31T16:35:00.867Z,1.10
2022-07-31T16:37:51.327Z,1.10
2022-07-31T16:40:29.940Z,1.27
2022-07-31T16:43:49.489Z,1.40
2022-07-31T16:45:53.966Z,1.40
2022-07-31T16:48:20.649Z,1.20
2022-07-31T16:50:53.771Z,1.23
2022-07-31T16:54:10.989Z,1.40
2022-07-31T16:56:11.262Z,1.30
2022-07-31T16:58:37.794Z,1.40
2022-07-31T17:01:04.432Z,1.20
2022-07-31T17:04:01.330Z,1.30
2022-07-31T17:08:43.989Z,1.23
2022-07-31T17:11:10.508Z,1.23
2022-07-31T17:13:37.124Z,1.30
2022-07-31T17:16:03.884Z,1.40
2022-07-31T17:18:30.461Z,1.40
2022-07-31T17:20:57.139Z,1.30
2022-07-31T17:23:43.329Z,1.20
2022-07-31T17:26:21.157Z,1.45
2022-07-31T17:28:49.803Z,1.30
2022-07-31T17:31:16.454Z,1.50
2022-07-31T17:33:59.795Z,1.30
2022-07-31T17:36:29.490Z,1.27
2022-07-31T17:38:57.101Z,1.60
2022-07-31T17:41:25.206Z,1.30
2022-07-31T17:43:56.007Z,1.70
2022-07-31T17:46:29.984Z,1.35
2022-07-31T17:49:02.663Z,1.50
2022-07-31T17:51:29.153Z,1.25
2022-07-31T17:53:59.133Z,1.40
2022-07-31T17:56:26.704Z,1.30
2022-07-31T17:58:53.790Z,1.38
2022-07-31T18:01:21.616Z,1.83
2022-07-31T18:03:50.937Z,1.80
2022-07-31T18:06:17.365Z,1.30
2022-07-31T18:08:44.028Z,1.52
2022-07-31T18:11:10.478Z,1.40
2022-07-31T18:13:39.168Z,1.20
2022-07-31T18:16:16.184Z,1.80
2022-07-31T18:18:42.637Z,1.63
2022-07-31T18:21:09.329Z,1.50
2022-07-31T18:23:35.824Z,1.60
2022-07-31T18:26:03.342Z,1.50
2022-07-31T18:28:31.561Z,1.60
2022-07-31T18:31:04.721Z,1.50
2022-07-31T18:33:51.127Z,1.60
2022-07-31T18:36:17.702Z,1.50
2022-07-31T18:38:44.113Z,1.80
2022-07-31T18:41:10.555Z,1.50
2022-07-31T18:43:37.049Z,1.70
2022-07-31T18:46:03.475Z,1.58
2022-07-31T18:48:30.049Z,1.63
2022-07-31T18:50:58.099Z,1.77
2022-07-31T18:53:31.372Z,1.70
2022-07-31T18:55:57.782Z,2.05
2022-07-31T18:58:24.269Z,1.80
2022-07-31T19:00:54.956Z,2.22
2022-07-31T19:03:23.425Z,1.88
2022-07-31T19:05:52.206Z,2.20
2022-07-31T19:08:19.907Z,1.73
2022-07-31T19:10:49.051Z,1.60
2022-07-31T19:13:18.894Z,1.83
2022-07-31T19:15:50.553Z,1.90
2022-07-31T19:18:17.247Z,2.22
2022-07-31T19:20:59.881Z,1.70
2022-07-31T19:23:35.171Z,1.90
2022-07-31T19:26:04.093Z,1.70
2022-07-31T19:28:34.945Z,1.70
2022-07-31T19:31:07.448Z,1.73
2022-07-31T19:33:34.328Z,1.80
2022-07-31T19:36:02.863Z,1.60
2022-07-31T19:38:33.781Z,1.95
2022-07-31T19:41:00.310Z,1.70
2022-07-31T19:43:26.999Z,1.80
2022-07-31T19:45:58.717Z,1.73
2022-07-31T19:48:39.630Z,1.90
2022-07-31T19:51:06.599Z,1.77
2022-07-31T19:53:33.080Z,1.80
2022-07-31T19:56:05.528Z,1.73
2022-07-31T19:58:34.308Z,1.80
2022-07-31T20:01:00.942Z,1.67
2022-07-31T20:03:29.600Z,1.50
2022-07-31T20:05:56.718Z,1.60
2022-07-31T20:08:23.744Z,1.58
2022-07-31T20:10:51.498Z,1.70
2022-07-31T20:13:18.787Z,1.60
2022-07-31T20:15:51.029Z,1.63
2022-07-31T20:18:27.271Z,1.50
2022-07-31T20:20:56.851Z,1.60
2022-07-31T20:23:24.105Z,1.52
2022-07-31T20:25:50.641Z,1.48
2022-07-31T20:28:17.180Z,1.60
2022-07-31T20:30:43.696Z,1.30
2022-07-31T20:33:11.088Z,1.65
2022-07-31T20:35:49.122Z,1.40
2022-07-31T20:38:25.691Z,1.45
2022-07-31T20:40:55.453Z,1.35
2022-07-31T20:43:24.266Z,1.73
2022-07-31T20:45:52.273Z,1.42
2022-07-31T20:48:20.961Z,1.75
2022-07-31T20:50:48.768Z,1.45
2022-07-31T20:53:16.273Z,1.60
2022-07-31T20:55:49.096Z,1.40
2022-07-31T20:58:16.169Z,1.75
2022-07-31T21:00:42.968Z,1.50
2022-07-31T21:03:09.533Z,1.60
2022-07-31T21:05:36.029Z,1.50
2022-07-31T21:08:02.594Z,1.50
2022-07-31T21:10:29.951Z,1.40
2022-07-31T21:12:57.501Z,1.35
2022-07-31T21:15:43.228Z,1.52
2022-07-31T21:18:18.915Z,1.35
2022-07-31T21:20:50.701Z,1.30
2022-07-31T21:23:23.545Z,1.55
2022-07-31T21:25:51.683Z,1.52
2022-07-31T21:28:18.497Z,1.63
2022-07-31T21:30:46.681Z,1.52
2022-07-31T21:33:13.355Z,1.20
2022-07-31T21:35:40.593Z,1.13
2022-07-31T21:38:11.724Z,1.60
2022-07-31T21:40:38.839Z,1.58
2022-07-31T21:43:05.705Z,1.27
2022-07-31T21:45:43.398Z,1.40
2022-07-31T21:50:46.704Z,1.63
2022-07-31T21:53:13.960Z,1.55
2022-07-31T21:55:40.886Z,1.50
2022-07-31T21:58:08.982Z,1.35
2022-07-31T22:00:36.705Z,1.88
2022-07-31T22:03:04.435Z,1.70
2022-07-31T22:05:50.784Z,1.45
2022-07-31T22:08:17.572Z,1.40
2022-07-31T22:10:44.609Z,1.40
2022-07-31T22:13:11.052Z,1.52
2022-07-31T22:15:58.358Z,1.50
2022-07-31T22:18:26.570Z,1.60
2022-07-31T22:20:53.663Z,1.40
2022-07-31T22:23:20.784Z,1.55
2022-07-31T22:25:48.942Z,1.55
2022-07-31T22:28:18.714Z,1.50
2022-07-31T22:30:45.584Z,1.45
2022-07-31T22:33:14.417Z,1.40
2022-07-31T22:35:41.129Z,1.30
2022-07-31T22:38:08.559Z,1.35
2022-07-31T22:40:35.216Z,1.70
2022-07-31T22:43:02.329Z,1.52
2022-07-31T22:45:29.503Z,1.58
2022-07-31T22:47:56.874Z,1.60
2022-07-31T22:50:23.568Z,1.52
2022-07-31T22:52:50.020Z,1.60
2022-07-31T22:55:16.533Z,1.42
2022-07-31T22:57:46.175Z,1.40
2022-07-31T23:00:14.624Z,1.50
2022-07-31T23:02:42.962Z,1.67
2022-07-31T23:05:10.196Z,1.90
2022-07-31T23:07:37.429Z,1.50
2022-07-31T23:10:06.172Z,1.30
2022-07-31T23:12:32.951Z,1.70
2022-07-31T23:14:59.424Z,1.42
2022-07-31T23:17:25.988Z,1.60
2022-07-31T23:19:53.913Z,1.40
2022-07-31T23:22:33.178Z,1.60
2022-07-31T23:25:01.987Z,1.30
2022-07-31T23:27:28.430Z,1.55
2022-07-31T23:29:54.865Z,1.80
2022-07-31T23:32:21.388Z,1.60
2022-07-31T23:34:47.850Z,1.48
2022-07-31T23:37:14.291Z,1.45
2022-07-31T23:39:40.804Z,1.40
2022-07-31T23:42:26.155Z,1.60
2022-07-31T23:44:52.598Z,1.42
2022-07-31T23:47:19.083Z,1.60
2022-07-31T23:49:46.358Z,1.65
2022-07-31T23:52:12.953Z,1.75
2022-07-31T23:54:39.521Z,1.45
2022-07-31T23:57:05.978Z,1.50
2022-07-31T23:59:32.455Z,1.90
